createdAt,value
2023-05-07T00:02:20.516Z,12.70
2023-05-07T00:04:47.652Z,10.30
2023-05-07T00:07:15.037Z,11.97
2023-05-07T00:09:42.262Z,12.43
2023-05-07T00:12:09.324Z,11.93
2023-05-07T00:14:36.409Z,11.63
2023-05-07T00:17:03.864Z,11.03
2023-05-07T00:19:30.963Z,13.50
2023-05-07T00:21:59.470Z,12.50
2023-05-07T00:24:26.603Z,13.13
2023-05-07T00:26:53.689Z,13.97
2023-05-07T00:29:21.311Z,13.83
2023-05-07T00:31:48.432Z,13.00
2023-05-07T00:34:15.479Z,13.43
2023-05-07T00:36:42.557Z,14.03
2023-05-07T00:39:09.740Z,14.00
2023-05-07T00:41:36.767Z,14.67
2023-05-07T00:44:06.038Z,14.20
2023-05-07T00:46:34.356Z,15.20
2023-05-07T00:49:01.525Z,15.30
2023-05-07T00:51:29.262Z,12.80
2023-05-07T00:53:56.472Z,14.73
2023-05-07T00:56:24.339Z,15.90
2023-05-07T00:58:51.814Z,13.60
2023-05-07T01:01:18.956Z,14.17
2023-05-07T01:03:46.122Z,12.50
2023-05-07T01:06:14.600Z,13.90
2023-05-07T01:08:42.790Z,13.27
2023-05-07T01:11:10.496Z,12.63
2023-05-07T01:13:38.739Z,11.97
2023-05-07T01:16:06.155Z,13.07
2023-05-07T01:18:33.666Z,13.10
2023-05-07T01:21:01.419Z,12.13
2023-05-07T01:23:29.248Z,13.13
2023-05-07T01:25:56.505Z,12.53
2023-05-07T01:31:09.361Z,11.00
2023-05-07T01:33:37.808Z,11.87
2023-05-07T01:36:07.528Z,13.57
2023-05-07T01:38:35.274Z,10.87
2023-05-07T01:41:02.778Z,10.73
2023-05-07T01:43:30.880Z,13.63
2023-05-07T01:45:59.411Z,11.20
2023-05-07T01:48:26.516Z,13.30
2023-05-07T01:50:54.136Z,12.37
2023-05-07T01:53:21.581Z,14.20
2023-05-07T01:55:48.692Z,12.43
2023-05-07T01:58:15.764Z,13.57
2023-05-07T02:00:43.190Z,13.00
2023-05-07T02:03:10.437Z,14.93
2023-05-07T02:05:37.749Z,12.53
2023-05-07T02:08:05.492Z,12.47
2023-05-07T02:10:32.573Z,12.03
2023-05-07T02:13:00.698Z,14.47
2023-05-07T02:15:28.140Z,11.73
2023-05-07T02:18:06.034Z,14.20
2023-05-07T02:20:33.448Z,11.93
2023-05-07T02:23:01.238Z,11.57
2023-05-07T02:25:28.338Z,12.93
2023-05-07T02:27:55.814Z,11.63
2023-05-07T02:30:22.871Z,12.53
2023-05-07T02:32:50.014Z,11.07
2023-05-07T02:35:17.486Z,15.43
2023-05-07T02:37:44.533Z,11.00
2023-05-07T02:40:12.345Z,10.30
2023-05-07T02:42:40.018Z,11.50
2023-05-07T02:45:07.353Z,10.07
2023-05-07T02:47:34.553Z,10.77
2023-05-07T02:50:01.946Z,9.90
2023-05-07T02:52:29.019Z,10.30
2023-05-07T02:54:56.201Z,9.20
2023-05-07T02:57:23.626Z,9.00
2023-05-07T02:59:50.705Z,9.20
2023-05-07T03:02:17.887Z,8.80
2023-05-07T03:04:45.286Z,10.13
2023-05-07T03:07:12.320Z,12.00
2023-05-07T03:09:39.374Z,7.97
2023-05-07T03:12:06.716Z,7.00
2023-05-07T03:14:34.266Z,9.73
2023-05-07T03:17:01.310Z,9.40
2023-05-07T03:19:28.760Z,9.70
2023-05-07T03:21:56.448Z,10.77
2023-05-07T03:24:23.479Z,9.93
2023-05-07T03:26:50.971Z,10.07
2023-05-07T03:29:18.003Z,11.53
2023-05-07T03:31:46.103Z,9.60
2023-05-07T03:34:13.490Z,10.80
2023-05-07T03:36:40.530Z,10.33
2023-05-07T03:39:07.899Z,9.53
2023-05-07T03:41:35.311Z,10.83
2023-05-07T03:44:02.349Z,10.50
2023-05-07T03:46:29.601Z,10.80
2023-05-07T03:48:56.728Z,13.13
2023-05-07T03:51:23.835Z,11.47
2023-05-07T03:53:53.580Z,10.33
2023-05-07T03:56:22.120Z,12.40
2023-05-07T03:58:49.256Z,10.67
2023-05-07T04:01:16.489Z,11.77
2023-05-07T04:03:43.621Z,11.23
2023-05-07T04:06:11.510Z,11.70
2023-05-07T04:08:38.591Z,15.17
2023-05-07T04:11:05.975Z,11.33
2023-05-07T04:13:33.109Z,11.67
2023-05-07T04:16:00.280Z,12.33
2023-05-07T04:18:27.769Z,11.83
2023-05-07T04:20:54.811Z,11.47
2023-05-07T04:23:21.917Z,10.83
2023-05-07T04:25:49.033Z,12.27
2023-05-07T04:28:16.088Z,11.80
2023-05-07T04:30:43.111Z,10.97
2023-05-07T04:33:10.770Z,11.70
2023-05-07T04:35:37.966Z,12.23
2023-05-07T04:38:05.025Z,11.83
2023-05-07T04:40:32.431Z,11.43
2023-05-07T04:42:59.479Z,13.33
2023-05-07T04:45:26.576Z,11.67
2023-05-07T04:47:53.669Z,9.13
2023-05-07T04:50:20.918Z,10.77
2023-05-07T04:52:48.014Z,10.80
2023-05-07T04:55:15.779Z,9.30
2023-05-07T04:57:42.854Z,10.63
2023-05-07T05:00:10.368Z,9.30
2023-05-07T05:02:38.315Z,10.30
2023-05-07T05:05:05.707Z,9.37
2023-05-07T05:07:32.783Z,8.93
2023-05-07T05:10:00.189Z,10.03
2023-05-07T05:12:27.356Z,9.23
2023-05-07T05:14:54.434Z,12.60
2023-05-07T05:17:21.944Z,9.43
2023-05-07T05:19:49.017Z,10.50
2023-05-07T05:22:16.198Z,9.20
2023-05-07T05:24:43.606Z,10.10
2023-05-07T05:27:10.851Z,9.60
2023-05-07T05:29:37.907Z,11.10
2023-05-07T05:32:05.342Z,11.23
2023-05-07T05:34:34.048Z,13.63
2023-05-07T05:37:01.279Z,11.77
2023-05-07T05:39:28.694Z,11.00
2023-05-07T05:41:55.778Z,11.43
2023-05-07T05:44:22.910Z,13.53
2023-05-07T05:46:51.174Z,11.97
2023-05-07T05:49:18.384Z,12.27
2023-05-07T05:51:45.452Z,9.47
2023-05-07T05:54:12.817Z,10.97
2023-05-07T05:56:39.881Z,9.63
2023-05-07T05:59:07.180Z,9.33
2023-05-07T06:01:34.395Z,8.57
2023-05-07T06:04:01.486Z,8.57
2023-05-07T06:06:29.100Z,8.97
2023-05-07T06:08:56.161Z,7.40
2023-05-07T06:11:23.280Z,8.30
2023-05-07T06:13:50.401Z,8.63
2023-05-07T06:16:17.505Z,8.23
2023-05-07T06:18:46.259Z,7.07
2023-05-07T06:21:13.300Z,8.63
2023-05-07T06:23:41.861Z,8.97
2023-05-07T06:26:09.026Z,9.50
2023-05-07T06:28:36.902Z,8.13
2023-05-07T06:31:17.237Z,10.57
2023-05-07T06:33:45.853Z,8.77
2023-05-07T06:36:12.916Z,8.43
2023-05-07T06:38:40.290Z,8.40
2023-05-07T06:41:07.821Z,7.10
2023-05-07T06:43:35.122Z,7.93
2023-05-07T06:46:02.509Z,7.63
2023-05-07T06:48:29.619Z,7.27
2023-05-07T06:50:58.474Z,8.87
2023-05-07T06:53:27.081Z,7.57
2023-05-07T06:55:54.201Z,6.87
2023-05-07T06:58:21.255Z,8.43
2023-05-07T07:00:48.314Z,8.50
2023-05-07T07:03:15.446Z,8.87
2023-05-07T07:05:43.137Z,7.13
2023-05-07T07:08:10.242Z,7.90
2023-05-07T07:10:37.343Z,7.87
2023-05-07T07:13:04.612Z,8.13
2023-05-07T07:15:31.997Z,6.57
2023-05-07T07:17:59.119Z,7.43
2023-05-07T07:20:26.298Z,6.40
2023-05-07T07:22:53.869Z,5.30
2023-05-07T07:25:20.963Z,4.40
2023-05-07T07:27:48.027Z,4.17
2023-05-07T07:30:15.213Z,4.23
2023-05-07T07:32:42.340Z,5.13
2023-05-07T07:35:09.747Z,6.30
2023-05-07T07:37:37.159Z,4.77
2023-05-07T07:40:04.629Z,4.27
2023-05-07T07:42:31.770Z,4.20
2023-05-07T07:44:58.830Z,3.73
2023-05-07T07:47:26.100Z,4.33
2023-05-07T07:49:53.189Z,4.30
2023-05-07T07:52:20.860Z,3.80
2023-05-07T07:54:47.908Z,3.73
2023-05-07T07:57:14.959Z,4.13
2023-05-07T07:59:44.125Z,3.87
2023-05-07T08:02:11.369Z,4.17
2023-05-07T08:04:39.042Z,3.63
2023-05-07T08:07:07.102Z,3.23
2023-05-07T08:09:34.147Z,3.50
2023-05-07T08:12:02.214Z,3.63
2023-05-07T08:17:17.198Z,3.60
2023-05-07T08:19:44.539Z,3.43
2023-05-07T08:22:12.645Z,4.07
2023-05-07T08:24:40.084Z,3.37
2023-05-07T08:27:07.125Z,3.87
2023-05-07T08:29:34.221Z,4.60
2023-05-07T08:32:01.641Z,3.57
2023-05-07T08:34:28.835Z,4.50
2023-05-07T08:36:56.692Z,4.30
2023-05-07T08:39:23.944Z,4.20
2023-05-07T08:41:53.681Z,4.03
2023-05-07T08:44:23.098Z,4.10
2023-05-07T08:46:55.282Z,4.93
2023-05-07T08:49:22.550Z,4.67
2023-05-07T08:51:49.777Z,5.07
2023-05-07T08:54:21.039Z,5.93
2023-05-07T08:56:48.185Z,5.07
2023-05-07T08:59:15.382Z,5.67
2023-05-07T09:01:42.534Z,6.20
2023-05-07T09:04:10.239Z,5.33
2023-05-07T09:06:38.993Z,5.17
2023-05-07T09:09:06.508Z,6.23
2023-05-07T09:11:33.621Z,6.50
2023-05-07T09:14:02.421Z,6.40
2023-05-07T09:16:33.991Z,6.60
2023-05-07T09:19:01.956Z,6.23
2023-05-07T09:21:29.012Z,6.77
2023-05-07T09:23:57.215Z,7.17
2023-05-07T09:26:24.824Z,6.60
2023-05-07T09:28:52.042Z,5.53
2023-05-07T09:31:21.431Z,5.00
2023-05-07T09:33:48.891Z,5.43
2023-05-07T09:36:16.029Z,6.53
2023-05-07T09:38:43.552Z,6.43
2023-05-07T09:41:11.523Z,5.73
2023-05-07T09:43:39.773Z,6.03
2023-05-07T09:46:13.506Z,5.87
2023-05-07T09:48:41.140Z,5.87
2023-05-07T09:51:17.817Z,5.77
2023-05-07T09:53:47.196Z,6.20
2023-05-07T09:56:16.066Z,8.13
2023-05-07T09:58:43.638Z,6.83
2023-05-07T10:01:12.165Z,5.90
2023-05-07T10:03:41.401Z,7.13
2023-05-07T10:06:09.884Z,6.30
2023-05-07T10:08:37.320Z,6.83
2023-05-07T10:11:05.810Z,6.27
2023-05-07T10:13:34.638Z,6.27
2023-05-07T10:16:02.137Z,7.87
2023-05-07T10:18:30.885Z,7.07
2023-05-07T10:21:00.182Z,6.27
2023-05-07T10:23:28.104Z,5.73
2023-05-07T10:26:00.734Z,5.60
2023-05-07T10:28:29.397Z,6.37
2023-05-07T10:31:15.846Z,6.43
2023-05-07T10:33:44.113Z,5.80
2023-05-07T10:36:11.201Z,6.37
2023-05-07T10:38:39.139Z,6.43
2023-05-07T10:41:06.927Z,7.13
2023-05-07T10:43:42.006Z,6.97
2023-05-07T10:46:19.604Z,6.40
2023-05-07T10:49:06.225Z,5.83
2023-05-07T10:51:37.236Z,5.87
2023-05-07T10:54:13.697Z,5.17
2023-05-07T10:56:41.680Z,6.97
2023-05-07T10:59:24.682Z,5.80
2023-05-07T11:01:58.008Z,6.10
2023-05-07T11:04:27.136Z,5.30
2023-05-07T11:07:10.361Z,5.93
2023-05-07T11:09:52.716Z,5.60
2023-05-07T11:12:47.699Z,4.53
2023-05-07T11:15:18.306Z,5.60
2023-05-07T11:17:56.179Z,4.60
2023-05-07T11:20:44.441Z,5.13
2023-05-07T11:23:31.458Z,4.50
2023-05-07T11:26:02.246Z,6.13
2023-05-07T11:28:29.836Z,4.50
2023-05-07T11:30:57.984Z,4.80
2023-05-07T11:33:28.007Z,4.73
2023-05-07T11:35:55.302Z,4.40
2023-05-07T11:38:22.904Z,4.80
2023-05-07T11:40:50.947Z,4.87
2023-05-07T11:43:18.356Z,4.43
2023-05-07T11:45:47.557Z,5.07
2023-05-07T11:48:15.990Z,4.77
2023-05-07T11:50:56.652Z,5.43
2023-05-07T11:53:26.324Z,5.50
2023-05-07T11:55:59.732Z,5.07
2023-05-07T11:58:26.858Z,4.87
2023-05-07T12:00:54.853Z,6.27
2023-05-07T12:03:23.027Z,5.30
2023-05-07T12:05:50.628Z,6.20
2023-05-07T12:08:18.133Z,4.63
2023-05-07T12:10:45.937Z,5.57
2023-05-07T12:13:31.796Z,6.00
2023-05-07T12:15:58.942Z,5.07
2023-05-07T12:18:26.143Z,4.83
2023-05-07T12:20:53.324Z,4.93
2023-05-07T12:23:20.931Z,8.97
2023-05-07T12:25:48.648Z,4.67
2023-05-07T12:28:16.941Z,5.03
2023-05-07T12:30:45.345Z,6.07
2023-05-07T12:33:12.792Z,4.40
2023-05-07T12:35:41.737Z,5.40
2023-05-07T12:38:12.803Z,4.70
2023-05-07T12:40:51.858Z,4.57
2023-05-07T12:43:19.043Z,5.50
2023-05-07T12:45:46.606Z,5.60
2023-05-07T12:48:13.946Z,6.10
2023-05-07T12:50:41.308Z,5.03
2023-05-07T12:53:09.053Z,4.80
2023-05-07T12:56:02.581Z,4.97
2023-05-07T12:58:30.678Z,4.87
2023-05-07T13:01:01.514Z,6.23
2023-05-07T13:03:32.904Z,5.27
2023-05-07T13:06:01.556Z,5.10
2023-05-07T13:08:37.535Z,4.73
2023-05-07T13:11:05.504Z,4.90
2023-05-07T13:13:33.114Z,4.67
2023-05-07T13:16:01.600Z,4.80
2023-05-07T13:18:29.067Z,4.47
2023-05-07T13:20:56.258Z,6.00
2023-05-07T13:23:23.380Z,5.03
2023-05-07T13:25:51.511Z,4.37
2023-05-07T13:28:18.961Z,5.60
2023-05-07T13:30:46.352Z,4.53
2023-05-07T13:33:13.468Z,4.87
2023-05-07T13:35:40.702Z,10.23
2023-05-07T13:38:08.114Z,5.50
2023-05-07T13:40:35.306Z,7.33
2023-05-07T13:43:05.466Z,6.50
2023-05-07T13:45:32.865Z,4.53
2023-05-07T13:48:00.051Z,4.87
2023-05-07T13:50:28.124Z,4.80
2023-05-07T13:52:55.624Z,4.70
2023-05-07T13:55:23.932Z,4.67
2023-05-07T13:57:57.508Z,4.00
2023-05-07T14:00:25.367Z,4.00
2023-05-07T14:02:52.704Z,3.90
2023-05-07T14:05:20.356Z,3.43
2023-05-07T14:07:48.119Z,3.50
2023-05-07T14:10:15.770Z,4.60
2023-05-07T14:12:43.321Z,3.83
2023-05-07T14:15:10.635Z,3.43
2023-05-07T14:17:37.767Z,3.73
2023-05-07T14:20:05.593Z,3.40
2023-05-07T14:22:32.647Z,4.80
2023-05-07T14:27:33.081Z,3.40
2023-05-07T14:30:00.218Z,3.27
2023-05-07T14:32:27.296Z,3.80
2023-05-07T14:34:54.776Z,4.93
2023-05-07T14:37:21.839Z,3.17
2023-05-07T14:39:50.655Z,3.23
2023-05-07T14:42:18.823Z,3.90
2023-05-07T14:44:46.501Z,4.37
2023-05-07T14:47:14.718Z,3.53
2023-05-07T14:49:43.474Z,3.97
2023-05-07T14:52:11.191Z,3.80
2023-05-07T14:54:39.402Z,3.50
2023-05-07T14:57:07.708Z,5.20
2023-05-07T14:59:35.010Z,4.10
2023-05-07T15:02:05.418Z,3.70
2023-05-07T15:04:34.459Z,3.57
2023-05-07T15:07:01.635Z,4.17
2023-05-07T15:09:28.680Z,4.47
2023-05-07T15:11:56.505Z,3.67
2023-05-07T15:14:23.587Z,3.97
2023-05-07T15:16:50.833Z,7.87
2023-05-07T15:19:18.284Z,3.93
2023-05-07T15:21:45.507Z,5.77
2023-05-07T15:24:12.621Z,4.23
2023-05-07T15:26:40.022Z,4.30
2023-05-07T15:29:10.978Z,4.80
2023-05-07T15:31:41.854Z,4.57
2023-05-07T15:34:08.967Z,4.23
2023-05-07T15:36:36.140Z,4.50
2023-05-07T15:39:04.683Z,4.50
2023-05-07T15:41:31.719Z,5.10
2023-05-07T15:43:58.767Z,4.67
2023-05-07T15:46:26.819Z,6.10
2023-05-07T15:48:54.369Z,5.10
2023-05-07T15:51:22.748Z,5.30
2023-05-07T15:53:52.205Z,5.30
2023-05-07T15:56:19.293Z,5.83
2023-05-07T15:58:46.437Z,5.10
2023-05-07T16:01:13.582Z,4.80
2023-05-07T16:03:41.684Z,4.97
2023-05-07T16:06:10.900Z,4.73
2023-05-07T16:08:39.602Z,4.80
2023-05-07T16:11:06.833Z,5.10
2023-05-07T16:13:35.305Z,7.23
2023-05-07T16:16:02.443Z,5.80
2023-05-07T16:18:29.613Z,5.63
2023-05-07T16:20:57.900Z,4.57
2023-05-07T16:23:25.318Z,5.83
2023-05-07T16:25:52.385Z,5.00
2023-05-07T16:28:19.448Z,5.83
2023-05-07T16:30:46.886Z,5.67
2023-05-07T16:33:13.950Z,5.53
2023-05-07T16:35:41.133Z,5.53
2023-05-07T16:38:11.508Z,5.03
2023-05-07T16:40:39.823Z,4.80
2023-05-07T16:43:07.011Z,5.57
2023-05-07T16:45:34.642Z,5.33
2023-05-07T16:48:03.107Z,5.60
2023-05-07T16:50:30.269Z,5.40
2023-05-07T16:52:57.601Z,4.63
2023-05-07T16:55:24.754Z,5.30
2023-05-07T16:57:51.809Z,5.50
2023-05-07T17:00:19.509Z,4.77
2023-05-07T17:02:47.017Z,4.40
2023-05-07T17:05:14.760Z,6.70
2023-05-07T17:07:42.358Z,5.77
2023-05-07T17:10:09.690Z,5.23
2023-05-07T17:12:37.520Z,5.17
2023-05-07T17:15:04.999Z,4.87
2023-05-07T17:17:32.754Z,5.50
2023-05-07T17:20:00.055Z,5.57
2023-05-07T17:22:27.427Z,8.10
2023-05-07T17:24:54.532Z,5.93
2023-05-07T17:27:21.682Z,5.27
2023-05-07T17:29:48.796Z,5.00
2023-05-07T17:32:16.149Z,5.03
2023-05-07T17:34:43.230Z,4.43
2023-05-07T17:37:10.663Z,6.47
2023-05-07T17:39:37.780Z,7.73
2023-05-07T17:42:04.998Z,5.50
2023-05-07T17:44:33.678Z,5.40
2023-05-07T17:47:00.759Z,4.73
2023-05-07T17:49:27.845Z,4.23
2023-05-07T17:51:55.985Z,4.90
2023-05-07T17:54:26.791Z,4.97
2023-05-07T17:56:54.102Z,5.43
2023-05-07T17:59:21.397Z,4.63
2023-05-07T18:01:48.592Z,5.70
2023-05-07T18:04:15.804Z,5.67
2023-05-07T18:06:42.992Z,4.43
2023-05-07T18:09:10.449Z,4.97
2023-05-07T18:11:37.790Z,5.47
2023-05-07T18:14:05.000Z,5.13
2023-05-07T18:16:32.313Z,4.57
2023-05-07T18:18:59.446Z,5.13
2023-05-07T18:21:26.585Z,6.23
2023-05-07T18:23:53.645Z,5.03
2023-05-07T18:26:21.357Z,5.53
2023-05-07T18:28:48.623Z,4.40
2023-05-07T18:31:15.818Z,4.30
2023-05-07T18:33:43.026Z,4.90
2023-05-07T18:36:10.105Z,5.60
2023-05-07T18:38:38.717Z,4.83
2023-05-07T18:41:05.947Z,6.33
2023-05-07T18:43:33.789Z,5.20
2023-05-07T18:46:01.193Z,6.07
2023-05-07T18:48:28.311Z,6.10
2023-05-07T18:50:55.872Z,5.17
2023-05-07T18:53:23.041Z,4.73
2023-05-07T18:55:50.919Z,6.17
2023-05-07T18:58:19.789Z,4.63
2023-05-07T19:00:50.769Z,5.30
2023-05-07T19:03:18.015Z,5.93
2023-05-07T19:05:46.100Z,5.37
2023-05-07T19:08:13.553Z,5.87
2023-05-07T19:10:40.913Z,6.40
2023-05-07T19:13:08.090Z,6.37
2023-05-07T19:15:35.539Z,6.20
2023-05-07T19:18:02.714Z,6.33
2023-05-07T19:20:30.340Z,5.87
2023-05-07T19:22:57.468Z,5.83
2023-05-07T19:25:24.618Z,5.83
2023-05-07T19:27:51.771Z,5.80
2023-05-07T19:30:19.081Z,6.53
2023-05-07T19:32:46.396Z,6.20
2023-05-07T19:35:13.891Z,6.13
2023-05-07T19:37:41.196Z,6.60
2023-05-07T19:40:09.381Z,7.00
2023-05-07T19:42:36.579Z,5.60
2023-05-07T19:45:04.381Z,7.20
2023-05-07T19:47:31.765Z,6.27
2023-05-07T19:49:59.019Z,6.23
2023-05-07T19:52:26.708Z,6.20
2023-05-07T19:54:53.978Z,6.00
2023-05-07T19:57:21.098Z,6.53
2023-05-07T19:59:48.228Z,6.37
2023-05-07T20:02:15.474Z,6.80
2023-05-07T20:04:43.200Z,7.53
2023-05-07T20:07:10.333Z,5.80
2023-05-07T20:09:37.411Z,5.83
2023-05-07T20:12:04.658Z,6.70
2023-05-07T20:14:32.496Z,5.70
2023-05-07T20:16:59.639Z,5.67
2023-05-07T20:19:27.054Z,6.90
2023-05-07T20:21:54.136Z,5.03
2023-05-07T20:24:21.274Z,5.40
2023-05-07T20:26:48.346Z,5.17
2023-05-07T20:29:15.451Z,5.57
2023-05-07T20:31:42.702Z,6.17
2023-05-07T20:34:09.804Z,5.70
2023-05-07T20:36:37.683Z,5.37
2023-05-07T20:39:04.841Z,6.70
2023-05-07T20:41:32.069Z,5.13
2023-05-07T20:44:00.314Z,6.10
2023-05-07T20:46:27.616Z,5.40
2023-05-07T20:48:55.233Z,5.27
2023-05-07T20:51:22.296Z,4.83
2023-05-07T20:53:49.418Z,5.10
2023-05-07T20:56:16.634Z,6.30
2023-05-07T20:58:43.691Z,5.80
2023-05-07T21:01:10.912Z,5.60
2023-05-07T21:03:38.117Z,5.23
2023-05-07T21:06:05.317Z,6.00
2023-05-07T21:08:32.440Z,4.07
2023-05-07T21:10:59.584Z,4.87
2023-05-07T21:13:26.790Z,4.50
2023-05-07T21:15:53.878Z,6.13
2023-05-07T21:18:21.456Z,5.00
2023-05-07T21:20:48.536Z,4.57
2023-05-07T21:25:52.084Z,5.23
2023-05-07T21:28:19.136Z,5.70
2023-05-07T21:30:46.188Z,5.13
2023-05-07T21:33:13.645Z,5.53
2023-05-07T21:35:40.751Z,4.47
2023-05-07T21:38:07.840Z,9.13
2023-05-07T21:40:35.051Z,5.10
2023-05-07T21:43:02.091Z,5.73
2023-05-07T21:45:29.136Z,4.93
2023-05-07T21:47:56.754Z,5.63
2023-05-07T21:50:23.948Z,4.60
2023-05-07T21:52:51.016Z,5.87
2023-05-07T21:55:19.108Z,4.83
2023-05-07T21:57:57.393Z,5.70
2023-05-07T22:00:29.772Z,5.40
2023-05-07T22:02:56.883Z,5.07
2023-05-07T22:05:24.029Z,4.63
2023-05-07T22:07:51.504Z,5.67
2023-05-07T22:10:22.474Z,4.30
2023-05-07T22:12:49.800Z,4.43
2023-05-07T22:15:17.386Z,4.23
2023-05-07T22:17:44.513Z,4.57
2023-05-07T22:20:12.275Z,4.43
2023-05-07T22:22:50.299Z,5.13
2023-05-07T22:25:19.564Z,5.77
2023-05-07T22:27:46.716Z,4.97
2023-05-07T22:30:14.391Z,5.33
2023-05-07T22:32:44.865Z,7.33
2023-05-07T22:35:12.155Z,4.57
2023-05-07T22:37:39.655Z,4.80
2023-05-07T22:40:07.142Z,5.63
2023-05-07T22:42:34.200Z,4.70
2023-05-07T22:45:01.334Z,4.73
2023-05-07T22:47:31.447Z,5.23
2023-05-07T22:49:58.634Z,6.20
2023-05-07T22:52:26.081Z,4.47
2023-05-07T22:54:53.178Z,4.53
2023-05-07T22:57:20.312Z,5.30
2023-05-07T22:59:47.753Z,5.60
2023-05-07T23:02:14.882Z,5.10
2023-05-07T23:04:41.948Z,4.83
2023-05-07T23:07:09.366Z,5.67
2023-05-07T23:09:36.751Z,8.73
2023-05-07T23:12:04.664Z,5.13
2023-05-07T23:14:32.153Z,5.63
2023-05-07T23:16:59.305Z,6.07
2023-05-07T23:19:26.458Z,6.27
2023-05-07T23:21:53.924Z,4.97
2023-05-07T23:24:20.991Z,6.23
2023-05-07T23:26:48.031Z,5.90
2023-05-07T23:29:15.470Z,5.37
2023-05-07T23:31:42.511Z,6.30
2023-05-07T23:34:09.573Z,7.53
2023-05-07T23:36:36.965Z,6.23
2023-05-07T23:39:04.093Z,6.03
2023-05-07T23:41:31.440Z,5.83
2023-05-07T23:43:58.805Z,5.53
2023-05-07T23:46:26.765Z,6.37
2023-05-07T23:48:53.853Z,7.30
2023-05-07T23:51:21.291Z,5.87
2023-05-07T23:53:48.340Z,7.83
2023-05-07T23:56:15.474Z,5.57
2023-05-07T23:58:43.237Z,5.53
